sensor_id;sensor_type;location;lat;lon;timestamp;P1;durP1;ratioP1;P2;durP2;ratioP2
44850;SDS011;30583;48.714;9.386;2023-10-19T00:02:12;21.38;;;16.63;;
44850;SDS011;30583;48.714;9.386;2023-10-19T00:04:40;21.85;;;17.00;;
44850;SDS011;30583;48.714;9.386;2023-10-19T00:07:06;20.88;;;16.50;;
44850;SDS011;30583;48.714;9.386;2023-10-19T00:09:33;20.83;;;17.25;;
44850;SDS011;30583;48.714;9.386;2023-10-19T00:12:03;22.08;;;17.08;;
44850;SDS011;30583;48.714;9.386;2023-10-19T00:14:30;21.05;;;16.73;;
44850;SDS011;30583;48.714;9.386;2023-10-19T00:16:57;22.25;;;17.92;;
44850;SDS011;30583;48.714;9.386;2023-10-19T00:19:26;21.70;;;16.75;;
44850;SDS011;30583;48.714;9.386;2023-10-19T00:21:56;21.45;;;17.27;;
44850;SDS011;30583;48.714;9.386;2023-10-19T00:24:27;20.52;;;16.40;;
44850;SDS011;30583;48.714;9.386;2023-10-19T00:26:53;20.02;;;16.75;;
44850;SDS011;30583;48.714;9.386;2023-10-19T00:29:20;22.08;;;16.55;;
44850;SDS011;30583;48.714;9.386;2023-10-19T00:32:04;26.52;;;20.52;;
44850;SDS011;30583;48.714;9.386;2023-10-19T00:34:31;27.02;;;21.63;;
44850;SDS011;30583;48.714;9.386;2023-10-19T00:36:58;26.20;;;20.65;;
44850;SDS011;30583;48.714;9.386;2023-10-19T00:39:32;20.75;;;17.38;;
44850;SDS011;30583;48.714;9.386;2023-10-19T00:42:19;22.52;;;17.67;;
44850;SDS011;30583;48.714;9.386;2023-10-19T00:44:55;21.42;;;17.33;;
44850;SDS011;30583;48.714;9.386;2023-10-19T00:47:29;22.52;;;17.75;;
44850;SDS011;30583;48.714;9.386;2023-10-19T00:50:04;23.55;;;17.02;;
44850;SDS011;30583;48.714;9.386;2023-10-19T00:52:39;20.13;;;16.58;;
44850;SDS011;30583;48.714;9.386;2023-10-19T00:55:10;22.27;;;17.98;;
44850;SDS011;30583;48.714;9.386;2023-10-19T00:57:39;23.02;;;17.40;;
44850;SDS011;30583;48.714;9.386;2023-10-19T01:00:10;22.23;;;16.48;;
44850;SDS011;30583;48.714;9.386;2023-10-19T01:02:40;20.55;;;16.08;;
44850;SDS011;30583;48.714;9.386;2023-10-19T01:05:10;20.33;;;16.10;;
44850;SDS011;30583;48.714;9.386;2023-10-19T01:07:38;20.25;;;16.92;;
44850;SDS011;30583;48.714;9.386;2023-10-19T01:10:04;21.20;;;16.40;;
44850;SDS011;30583;48.714;9.386;2023-10-19T01:12:44;20.83;;;15.63;;
44850;SDS011;30583;48.714;9.386;2023-10-19T01:15:14;20.80;;;16.63;;
44850;SDS011;30583;48.714;9.386;2023-10-19T01:17:52;22.25;;;16.95;;
44850;SDS011;30583;48.714;9.386;2023-10-19T01:20:23;22.17;;;16.30;;
44850;SDS011;30583;48.714;9.386;2023-10-19T01:23:08;20.13;;;16.15;;
44850;SDS011;30583;48.714;9.386;2023-10-19T01:28:19;19.05;;;16.65;;
44850;SDS011;30583;48.714;9.386;2023-10-19T01:30:47;22.58;;;18.00;;
44850;SDS011;30583;48.714;9.386;2023-10-19T01:33:16;20.40;;;17.15;;
44850;SDS011;30583;48.714;9.386;2023-10-19T01:35:43;21.27;;;16.88;;
44850;SDS011;30583;48.714;9.386;2023-10-19T01:40:57;19.70;;;16.00;;
44850;SDS011;30583;48.714;9.386;2023-10-19T01:43:26;24.20;;;18.50;;
44850;SDS011;30583;48.714;9.386;2023-10-19T01:45:58;25.55;;;18.55;;
44850;SDS011;30583;48.714;9.386;2023-10-19T01:48:36;22.67;;;18.05;;
44850;SDS011;30583;48.714;9.386;2023-10-19T01:51:10;25.33;;;19.05;;
44850;SDS011;30583;48.714;9.386;2023-10-19T01:53:39;24.58;;;18.52;;
44850;SDS011;30583;48.714;9.386;2023-10-19T01:56:09;23.92;;;17.27;;
44850;SDS011;30583;48.714;9.386;2023-10-19T01:58:39;28.33;;;18.15;;
44850;SDS011;30583;48.714;9.386;2023-10-19T02:01:05;22.23;;;18.00;;
44850;SDS011;30583;48.714;9.386;2023-10-19T02:03:44;21.67;;;15.95;;
44850;SDS011;30583;48.714;9.386;2023-10-19T02:06:10;20.50;;;15.10;;
44850;SDS011;30583;48.714;9.386;2023-10-19T02:08:45;21.65;;;15.63;;
44850;SDS011;30583;48.714;9.386;2023-10-19T02:11:21;20.98;;;15.65;;
44850;SDS011;30583;48.714;9.386;2023-10-19T02:13:48;18.08;;;14.43;;
44850;SDS011;30583;48.714;9.386;2023-10-19T02:16:16;16.70;;;14.00;;
44850;SDS011;30583;48.714;9.386;2023-10-19T02:18:42;20.63;;;16.17;;
44850;SDS011;30583;48.714;9.386;2023-10-19T02:21:09;19.80;;;15.75;;
44850;SDS011;30583;48.714;9.386;2023-10-19T02:23:40;20.20;;;15.95;;
44850;SDS011;30583;48.714;9.386;2023-10-19T02:26:09;18.95;;;15.30;;
44850;SDS011;30583;48.714;9.386;2023-10-19T02:28:38;19.35;;;15.05;;
44850;SDS011;30583;48.714;9.386;2023-10-19T02:31:04;21.33;;;15.88;;
44850;SDS011;30583;48.714;9.386;2023-10-19T02:33:40;19.25;;;14.77;;
44850;SDS011;30583;48.714;9.386;2023-10-19T02:36:11;18.80;;;15.95;;
44850;SDS011;30583;48.714;9.386;2023-10-19T02:38:41;21.60;;;16.10;;
44850;SDS011;30583;48.714;9.386;2023-10-19T02:41:09;20.63;;;15.25;;
44850;SDS011;30583;48.714;9.386;2023-10-19T02:43:36;29.23;;;22.35;;
44850;SDS011;30583;48.714;9.386;2023-10-19T02:46:02;24.35;;;18.85;;
44850;SDS011;30583;48.714;9.386;2023-10-19T02:48:28;27.77;;;22.85;;
44850;SDS011;30583;48.714;9.386;2023-10-19T02:50:54;31.45;;;24.38;;
44850;SDS011;30583;48.714;9.386;2023-10-19T02:53:20;47.08;;;37.25;;
44850;SDS011;30583;48.714;9.386;2023-10-19T02:55:45;29.20;;;21.50;;
44850;SDS011;30583;48.714;9.386;2023-10-19T02:58:11;20.38;;;16.95;;
44850;SDS011;30583;48.714;9.386;2023-10-19T03:00:38;21.67;;;16.27;;
44850;SDS011;30583;48.714;9.386;2023-10-19T03:03:05;19.88;;;16.33;;
44850;SDS011;30583;48.714;9.386;2023-10-19T03:05:31;24.17;;;16.98;;
44850;SDS011;30583;48.714;9.386;2023-10-19T03:07:59;19.83;;;15.60;;
44850;SDS011;30583;48.714;9.386;2023-10-19T03:10:30;21.60;;;15.05;;
44850;SDS011;30583;48.714;9.386;2023-10-19T03:13:06;20.55;;;15.60;;
44850;SDS011;30583;48.714;9.386;2023-10-19T03:15:39;20.20;;;15.32;;
44850;SDS011;30583;48.714;9.386;2023-10-19T03:18:07;19.27;;;15.05;;
44850;SDS011;30583;48.714;9.386;2023-10-19T03:20:33;18.73;;;14.50;;
44850;SDS011;30583;48.714;9.386;2023-10-19T03:23:02;17.58;;;14.73;;
44850;SDS011;30583;48.714;9.386;2023-10-19T03:25:28;24.25;;;16.55;;
44850;SDS011;30583;48.714;9.386;2023-10-19T03:28:32;19.33;;;15.65;;
44850;SDS011;30583;48.714;9.386;2023-10-19T03:31:00;18.80;;;14.73;;
44850;SDS011;30583;48.714;9.386;2023-10-19T03:33:26;19.58;;;14.77;;
44850;SDS011;30583;48.714;9.386;2023-10-19T03:35:53;18.08;;;14.25;;
44850;SDS011;30583;48.714;9.386;2023-10-19T03:38:19;16.02;;;14.05;;
44850;SDS011;30583;48.714;9.386;2023-10-19T03:40:47;18.42;;;15.45;;
44850;SDS011;30583;48.714;9.386;2023-10-19T03:43:17;21.73;;;14.57;;
44850;SDS011;30583;48.714;9.386;2023-10-19T03:45:46;19.40;;;14.57;;
44850;SDS011;30583;48.714;9.386;2023-10-19T03:48:18;16.23;;;13.68;;
44850;SDS011;30583;48.714;9.386;2023-10-19T03:50:49;17.45;;;13.75;;
44850;SDS011;30583;48.714;9.386;2023-10-19T03:53:17;16.75;;;13.43;;
44850;SDS011;30583;48.714;9.386;2023-10-19T03:55:43;18.25;;;14.13;;
44850;SDS011;30583;48.714;9.386;2023-10-19T03:58:09;17.27;;;13.07;;
44850;SDS011;30583;48.714;9.386;2023-10-19T04:00:37;18.60;;;13.65;;
44850;SDS011;30583;48.714;9.386;2023-10-19T04:03:03;20.42;;;15.35;;
44850;SDS011;30583;48.714;9.386;2023-10-19T04:05:29;17.40;;;14.18;;
44850;SDS011;30583;48.714;9.386;2023-10-19T04:07:56;16.63;;;13.88;;
44850;SDS011;30583;48.714;9.386;2023-10-19T04:10:25;16.50;;;13.25;;
44850;SDS011;30583;48.714;9.386;2023-10-19T04:12:59;16.10;;;12.68;;
44850;SDS011;30583;48.714;9.386;2023-10-19T04:15:26;17.48;;;13.32;;
44850;SDS011;30583;48.714;9.386;2023-10-19T04:17:52;15.40;;;13.10;;
44850;SDS011;30583;48.714;9.386;2023-10-19T04:20:23;16.95;;;13.55;;
44850;SDS011;30583;48.714;9.386;2023-10-19T04:23:07;16.88;;;13.82;;
44850;SDS011;30583;48.714;9.386;2023-10-19T04:25:36;19.70;;;12.75;;
44850;SDS011;30583;48.714;9.386;2023-10-19T04:28:02;15.55;;;12.35;;
44850;SDS011;30583;48.714;9.386;2023-10-19T04:30:28;14.50;;;12.18;;
44850;SDS011;30583;48.714;9.386;2023-10-19T04:32:54;14.98;;;12.00;;
44850;SDS011;30583;48.714;9.386;2023-10-19T04:35:23;15.65;;;12.18;;
44850;SDS011;30583;48.714;9.386;2023-10-19T04:37:49;14.00;;;12.40;;
44850;SDS011;30583;48.714;9.386;2023-10-19T04:40:17;15.30;;;12.35;;
44850;SDS011;30583;48.714;9.386;2023-10-19T04:42:43;17.00;;;13.20;;
44850;SDS011;30583;48.714;9.386;2023-10-19T04:45:09;15.65;;;12.15;;
44850;SDS011;30583;48.714;9.386;2023-10-19T04:47:37;16.00;;;12.77;;
44850;SDS011;30583;48.714;9.386;2023-10-19T04:50:03;15.57;;;11.20;;
44850;SDS011;30583;48.714;9.386;2023-10-19T04:52:30;15.15;;;11.90;;
44850;SDS011;30583;48.714;9.386;2023-10-19T04:54:57;15.82;;;12.10;;
44850;SDS011;30583;48.714;9.386;2023-10-19T04:57:23;14.05;;;11.00;;
44850;SDS011;30583;48.714;9.386;2023-10-19T04:59:49;13.60;;;12.10;;
44850;SDS011;30583;48.714;9.386;2023-10-19T05:02:15;15.10;;;12.20;;
44850;SDS011;30583;48.714;9.386;2023-10-19T05:04:41;13.77;;;11.10;;
44850;SDS011;30583;48.714;9.386;2023-10-19T05:07:06;15.80;;;11.85;;
44850;SDS011;30583;48.714;9.386;2023-10-19T05:09:36;13.55;;;11.43;;
44850;SDS011;30583;48.714;9.386;2023-10-19T05:12:04;18.90;;;13.27;;
44850;SDS011;30583;48.714;9.386;2023-10-19T05:14:34;43.95;;;29.55;;
44850;SDS011;30583;48.714;9.386;2023-10-19T05:17:01;43.15;;;33.05;;
44850;SDS011;30583;48.714;9.386;2023-10-19T05:19:29;32.88;;;22.80;;
44850;SDS011;30583;48.714;9.386;2023-10-19T05:22:01;23.77;;;18.15;;
44850;SDS011;30583;48.714;9.386;2023-10-19T05:24:29;21.00;;;16.30;;
44850;SDS011;30583;48.714;9.386;2023-10-19T05:26:55;17.85;;;14.43;;
44850;SDS011;30583;48.714;9.386;2023-10-19T05:29:21;17.42;;;13.80;;
44850;SDS011;30583;48.714;9.386;2023-10-19T05:31:49;17.95;;;14.90;;
44850;SDS011;30583;48.714;9.386;2023-10-19T05:34:21;19.73;;;14.60;;
44850;SDS011;30583;48.714;9.386;2023-10-19T05:36:47;18.48;;;14.63;;
44850;SDS011;30583;48.714;9.386;2023-10-19T05:39:14;18.30;;;14.82;;
44850;SDS011;30583;48.714;9.386;2023-10-19T05:41:43;16.45;;;13.35;;
44850;SDS011;30583;48.714;9.386;2023-10-19T05:44:09;18.73;;;13.40;;
44850;SDS011;30583;48.714;9.386;2023-10-19T05:46:35;16.40;;;13.02;;
44850;SDS011;30583;48.714;9.386;2023-10-19T05:49:01;18.38;;;12.35;;
44850;SDS011;30583;48.714;9.386;2023-10-19T05:51:29;27.90;;;15.88;;
44850;SDS011;30583;48.714;9.386;2023-10-19T05:53:55;25.98;;;15.55;;
44850;SDS011;30583;48.714;9.386;2023-10-19T05:56:26;24.35;;;15.02;;
44850;SDS011;30583;48.714;9.386;2023-10-19T05:58:59;22.48;;;13.95;;
44850;SDS011;30583;48.714;9.386;2023-10-19T06:01:26;20.17;;;14.48;;
44850;SDS011;30583;48.714;9.386;2023-10-19T06:03:51;16.80;;;12.98;;
44850;SDS011;30583;48.714;9.386;2023-10-19T06:06:17;20.30;;;14.23;;
44850;SDS011;30583;48.714;9.386;2023-10-19T06:08:44;23.90;;;14.55;;
44850;SDS011;30583;48.714;9.386;2023-10-19T06:11:10;20.08;;;13.63;;
44850;SDS011;30583;48.714;9.386;2023-10-19T06:13:36;34.15;;;16.70;;
44850;SDS011;30583;48.714;9.386;2023-10-19T06:16:01;25.52;;;16.27;;
44850;SDS011;30583;48.714;9.386;2023-10-19T06:18:27;19.92;;;14.55;;
44850;SDS011;30583;48.714;9.386;2023-10-19T06:20:54;13.32;;;8.75;;
44850;SDS011;30583;48.714;9.386;2023-10-19T06:23:20;11.18;;;6.88;;
44850;SDS011;30583;48.714;9.386;2023-10-19T06:25:46;11.38;;;8.18;;
44850;SDS011;30583;48.714;9.386;2023-10-19T06:28:12;14.30;;;9.40;;
44850;SDS011;30583;48.714;9.386;2023-10-19T06:30:37;12.98;;;10.07;;
44850;SDS011;30583;48.714;9.386;2023-10-19T06:33:05;13.82;;;11.15;;
44850;SDS011;30583;48.714;9.386;2023-10-19T06:35:31;18.38;;;12.93;;
44850;SDS011;30583;48.714;9.386;2023-10-19T06:37:58;20.33;;;14.90;;
44850;SDS011;30583;48.714;9.386;2023-10-19T06:40:24;15.82;;;12.63;;
44850;SDS011;30583;48.714;9.386;2023-10-19T06:42:51;16.67;;;12.55;;
44850;SDS011;30583;48.714;9.386;2023-10-19T06:45:20;17.42;;;12.18;;
44850;SDS011;30583;48.714;9.386;2023-10-19T06:47:46;16.02;;;12.85;;
44850;SDS011;30583;48.714;9.386;2023-10-19T06:50:15;19.02;;;13.02;;
44850;SDS011;30583;48.714;9.386;2023-10-19T06:52:42;19.83;;;13.57;;
44850;SDS011;30583;48.714;9.386;2023-10-19T06:55:09;27.60;;;15.68;;
44850;SDS011;30583;48.714;9.386;2023-10-19T06:57:41;21.55;;;14.40;;
44850;SDS011;30583;48.714;9.386;2023-10-19T07:00:08;19.38;;;13.55;;
44850;SDS011;30583;48.714;9.386;2023-10-19T07:02:45;16.42;;;12.65;;
44850;SDS011;30583;48.714;9.386;2023-10-19T07:05:11;17.63;;;12.55;;
44850;SDS011;30583;48.714;9.386;2023-10-19T07:07:41;17.45;;;12.60;;
44850;SDS011;30583;48.714;9.386;2023-10-19T07:10:08;19.70;;;12.85;;
44850;SDS011;30583;48.714;9.386;2023-10-19T07:12:35;16.92;;;11.80;;
44850;SDS011;30583;48.714;9.386;2023-10-19T07:15:02;27.80;;;15.35;;
44850;SDS011;30583;48.714;9.386;2023-10-19T07:17:32;23.13;;;15.02;;
44850;SDS011;30583;48.714;9.386;2023-10-19T07:19:58;23.90;;;13.93;;
44850;SDS011;30583;48.714;9.386;2023-10-19T07:22:24;17.00;;;12.18;;
44850;SDS011;30583;48.714;9.386;2023-10-19T07:24:50;25.35;;;16.40;;
44850;SDS011;30583;48.714;9.386;2023-10-19T07:27:16;25.15;;;14.88;;
44850;SDS011;30583;48.714;9.386;2023-10-19T07:29:45;19.42;;;13.88;;
44850;SDS011;30583;48.714;9.386;2023-10-19T07:32:10;13.73;;;10.75;;
44850;SDS011;30583;48.714;9.386;2023-10-19T07:34:38;16.15;;;10.40;;
44850;SDS011;30583;48.714;9.386;2023-10-19T07:37:04;14.38;;;9.77;;
44850;SDS011;30583;48.714;9.386;2023-10-19T07:39:32;16.58;;;10.95;;
44850;SDS011;30583;48.714;9.386;2023-10-19T07:41:59;14.05;;;10.93;;
44850;SDS011;30583;48.714;9.386;2023-10-19T07:44:24;16.88;;;11.48;;
44850;SDS011;30583;48.714;9.386;2023-10-19T07:46:51;14.20;;;9.90;;
44850;SDS011;30583;48.714;9.386;2023-10-19T07:49:17;15.20;;;10.20;;
44850;SDS011;30583;48.714;9.386;2023-10-19T07:51:46;14.30;;;11.20;;
44850;SDS011;30583;48.714;9.386;2023-10-19T07:54:12;18.00;;;11.98;;
44850;SDS011;30583;48.714;9.386;2023-10-19T07:56:38;12.73;;;10.77;;
44850;SDS011;30583;48.714;9.386;2023-10-19T07:59:04;13.95;;;10.90;;
44850;SDS011;30583;48.714;9.386;2023-10-19T08:01:31;13.38;;;10.73;;
44850;SDS011;30583;48.714;9.386;2023-10-19T08:03:57;15.52;;;12.27;;
44850;SDS011;30583;48.714;9.386;2023-10-19T08:06:23;20.65;;;13.60;;
44850;SDS011;30583;48.714;9.386;2023-10-19T08:08:48;18.98;;;13.27;;
44850;SDS011;30583;48.714;9.386;2023-10-19T08:11:15;18.58;;;14.25;;
44850;SDS011;30583;48.714;9.386;2023-10-19T08:13:41;20.80;;;12.48;;
44850;SDS011;30583;48.714;9.386;2023-10-19T08:16:07;19.60;;;12.15;;
44850;SDS011;30583;48.714;9.386;2023-10-19T08:18:33;17.10;;;12.50;;
44850;SDS011;30583;48.714;9.386;2023-10-19T08:21:00;20.10;;;13.07;;
44850;SDS011;30583;48.714;9.386;2023-10-19T08:23:27;19.05;;;12.80;;
44850;SDS011;30583;48.714;9.386;2023-10-19T08:25:53;16.33;;;12.68;;
44850;SDS011;30583;48.714;9.386;2023-10-19T08:28:20;20.05;;;12.40;;
44850;SDS011;30583;48.714;9.386;2023-10-19T08:30:47;19.60;;;13.00;;
44850;SDS011;30583;48.714;9.386;2023-10-19T08:33:24;21.02;;;14.15;;
44850;SDS011;30583;48.714;9.386;2023-10-19T08:35:53;18.92;;;13.60;;
44850;SDS011;30583;48.714;9.386;2023-10-19T08:38:20;20.30;;;13.02;;
44850;SDS011;30583;48.714;9.386;2023-10-19T08:40:46;19.25;;;12.52;;
44850;SDS011;30583;48.714;9.386;2023-10-19T08:43:12;18.40;;;12.75;;
44850;SDS011;30583;48.714;9.386;2023-10-19T08:45:38;16.90;;;12.68;;
44850;SDS011;30583;48.714;9.386;2023-10-19T08:48:04;16.15;;;12.52;;
44850;SDS011;30583;48.714;9.386;2023-10-19T08:50:31;17.45;;;11.38;;
44850;SDS011;30583;48.714;9.386;2023-10-19T08:53:02;16.52;;;11.07;;
44850;SDS011;30583;48.714;9.386;2023-10-19T08:55:29;16.08;;;11.05;;
44850;SDS011;30583;48.714;9.386;2023-10-19T08:58:00;15.73;;;11.52;;
44850;SDS011;30583;48.714;9.386;2023-10-19T09:00:27;17.95;;;12.07;;
44850;SDS011;30583;48.714;9.386;2023-10-19T09:02:59;22.75;;;13.57;;
44850;SDS011;30583;48.714;9.386;2023-10-19T09:05:24;15.70;;;11.50;;
44850;SDS011;30583;48.714;9.386;2023-10-19T09:07:51;14.75;;;10.80;;
44850;SDS011;30583;48.714;9.386;2023-10-19T09:10:21;15.80;;;10.55;;
44850;SDS011;30583;48.714;9.386;2023-10-19T09:13:00;17.65;;;9.80;;
44850;SDS011;30583;48.714;9.386;2023-10-19T09:15:30;16.67;;;10.88;;
44850;SDS011;30583;48.714;9.386;2023-10-19T09:17:58;23.02;;;12.88;;
44850;SDS011;30583;48.714;9.386;2023-10-19T09:20:36;21.33;;;14.45;;
44850;SDS011;30583;48.714;9.386;2023-10-19T09:23:02;25.17;;;13.95;;
44850;SDS011;30583;48.714;9.386;2023-10-19T09:25:27;22.98;;;12.98;;
44850;SDS011;30583;48.714;9.386;2023-10-19T09:27:53;19.50;;;13.13;;
44850;SDS011;30583;48.714;9.386;2023-10-19T09:30:18;14.55;;;10.80;;
44850;SDS011;30583;48.714;9.386;2023-10-19T09:32:46;16.95;;;9.80;;
44850;SDS011;30583;48.714;9.386;2023-10-19T09:35:13;14.55;;;10.30;;
44850;SDS011;30583;48.714;9.386;2023-10-19T09:37:41;16.13;;;8.93;;
44850;SDS011;30583;48.714;9.386;2023-10-19T09:40:08;16.02;;;10.07;;
44850;SDS011;30583;48.714;9.386;2023-10-19T09:42:41;16.00;;;9.82;;
44850;SDS011;30583;48.714;9.386;2023-10-19T09:45:11;15.05;;;9.57;;
44850;SDS011;30583;48.714;9.386;2023-10-19T09:47:41;12.55;;;9.48;;
44850;SDS011;30583;48.714;9.386;2023-10-19T09:50:11;14.37;;;9.93;;
44850;SDS011;30583;48.714;9.386;2023-10-19T09:52:37;15.98;;;10.50;;
44850;SDS011;30583;48.714;9.386;2023-10-19T09:55:09;21.23;;;12.52;;
44850;SDS011;30583;48.714;9.386;2023-10-19T09:57:50;36.65;;;20.15;;
44850;SDS011;30583;48.714;9.386;2023-10-19T10:00:20;36.33;;;19.98;;
44850;SDS011;30583;48.714;9.386;2023-10-19T10:02:48;32.72;;;17.67;;
44850;SDS011;30583;48.714;9.386;2023-10-19T10:10:43;23.48;;;12.27;;
44850;SDS011;30583;48.714;9.386;2023-10-19T10:15:53;21.42;;;12.15;;
44850;SDS011;30583;48.714;9.386;2023-10-19T10:18:20;16.95;;;11.02;;
44850;SDS011;30583;48.714;9.386;2023-10-19T10:20:55;20.45;;;11.18;;
44850;SDS011;30583;48.714;9.386;2023-10-19T10:23:31;18.77;;;11.05;;
44850;SDS011;30583;48.714;9.386;2023-10-19T10:25:59;18.25;;;9.55;;
44850;SDS011;30583;48.714;9.386;2023-10-19T10:28:25;16.30;;;10.15;;
44850;SDS011;30583;48.714;9.386;2023-10-19T10:33:48;10.88;;;6.25;;
44850;SDS011;30583;48.714;9.386;2023-10-19T10:36:16;14.77;;;8.27;;
44850;SDS011;30583;48.714;9.386;2023-10-19T10:38:43;13.63;;;8.50;;
44850;SDS011;30583;48.714;9.386;2023-10-19T10:41:09;16.33;;;8.23;;
44850;SDS011;30583;48.714;9.386;2023-10-19T10:43:48;13.90;;;8.90;;
44850;SDS011;30583;48.714;9.386;2023-10-19T10:46:16;15.55;;;8.90;;
44850;SDS011;30583;48.714;9.386;2023-10-19T10:48:42;13.10;;;9.18;;
44850;SDS011;30583;48.714;9.386;2023-10-19T10:51:28;14.68;;;9.45;;
44850;SDS011;30583;48.714;9.386;2023-10-19T10:53:57;16.77;;;9.27;;
44850;SDS011;30583;48.714;9.386;2023-10-19T10:56:23;14.27;;;9.20;;
44850;SDS011;30583;48.714;9.386;2023-10-19T10:58:49;16.90;;;9.85;;
44850;SDS011;30583;48.714;9.386;2023-10-19T11:01:15;18.38;;;13.20;;
44850;SDS011;30583;48.714;9.386;2023-10-19T11:04:04;21.15;;;12.63;;
44850;SDS011;30583;48.714;9.386;2023-10-19T11:06:31;17.38;;;10.80;;
44850;SDS011;30583;48.714;9.386;2023-10-19T11:08:57;12.27;;;9.65;;
44850;SDS011;30583;48.714;9.386;2023-10-19T11:11:22;17.77;;;10.18;;
44850;SDS011;30583;48.714;9.386;2023-10-19T11:13:48;12.45;;;9.75;;
44850;SDS011;30583;48.714;9.386;2023-10-19T11:16:21;17.90;;;11.32;;
44850;SDS011;30583;48.714;9.386;2023-10-19T11:18:48;16.05;;;10.43;;
44850;SDS011;30583;48.714;9.386;2023-10-19T11:21:15;20.20;;;11.65;;
44850;SDS011;30583;48.714;9.386;2023-10-19T11:26:12;13.55;;;10.68;;
44850;SDS011;30583;48.714;9.386;2023-10-19T11:28:40;14.93;;;10.75;;
44850;SDS011;30583;48.714;9.386;2023-10-19T11:31:22;16.90;;;12.77;;
44850;SDS011;30583;48.714;9.386;2023-10-19T11:33:49;14.70;;;12.27;;
44850;SDS011;30583;48.714;9.386;2023-10-19T11:36:23;19.65;;;10.55;;
44850;SDS011;30583;48.714;9.386;2023-10-19T11:38:50;13.23;;;10.45;;
44850;SDS011;30583;48.714;9.386;2023-10-19T11:41:19;15.63;;;11.30;;
44850;SDS011;30583;48.714;9.386;2023-10-19T11:43:46;16.45;;;11.88;;
44850;SDS011;30583;48.714;9.386;2023-10-19T11:46:13;18.73;;;12.90;;
44850;SDS011;30583;48.714;9.386;2023-10-19T11:48:50;15.68;;;12.52;;
44850;SDS011;30583;48.714;9.386;2023-10-19T11:51:15;20.50;;;13.48;;
44850;SDS011;30583;48.714;9.386;2023-10-19T11:53:41;16.98;;;13.40;;
44850;SDS011;30583;48.714;9.386;2023-10-19T11:56:08;20.15;;;14.20;;
44850;SDS011;30583;48.714;9.386;2023-10-19T11:58:38;20.48;;;13.77;;
44850;SDS011;30583;48.714;9.386;2023-10-19T12:01:06;19.20;;;14.18;;
44850;SDS011;30583;48.714;9.386;2023-10-19T12:03:42;21.40;;;13.82;;
44850;SDS011;30583;48.714;9.386;2023-10-19T12:06:10;20.23;;;13.77;;
44850;SDS011;30583;48.714;9.386;2023-10-19T12:08:37;16.30;;;14.10;;
44850;SDS011;30583;48.714;9.386;2023-10-19T12:11:04;18.98;;;13.90;;
44850;SDS011;30583;48.714;9.386;2023-10-19T12:13:40;20.05;;;14.73;;
44850;SDS011;30583;48.714;9.386;2023-10-19T12:16:08;21.15;;;14.93;;
44850;SDS011;30583;48.714;9.386;2023-10-19T12:18:37;17.65;;;13.98;;
44850;SDS011;30583;48.714;9.386;2023-10-19T12:21:07;20.33;;;14.57;;
44850;SDS011;30583;48.714;9.386;2023-10-19T12:23:36;17.95;;;12.98;;
44850;SDS011;30583;48.714;9.386;2023-10-19T12:26:04;20.73;;;14.13;;
44850;SDS011;30583;48.714;9.386;2023-10-19T12:28:36;20.83;;;13.95;;
44850;SDS011;30583;48.714;9.386;2023-10-19T12:31:03;16.77;;;12.48;;
44850;SDS011;30583;48.714;9.386;2023-10-19T12:33:30;22.88;;;14.68;;
44850;SDS011;30583;48.714;9.386;2023-10-19T12:35:56;19.98;;;14.45;;
44850;SDS011;30583;48.714;9.386;2023-10-19T12:38:24;19.77;;;14.98;;
44850;SDS011;30583;48.714;9.386;2023-10-19T12:40:50;26.27;;;17.38;;
44850;SDS011;30583;48.714;9.386;2023-10-19T12:43:16;22.40;;;16.50;;
44850;SDS011;30583;48.714;9.386;2023-10-19T12:45:50;25.17;;;15.88;;
44850;SDS011;30583;48.714;9.386;2023-10-19T12:48:18;18.95;;;14.18;;
44850;SDS011;30583;48.714;9.386;2023-10-19T12:50:45;21.13;;;15.55;;
44850;SDS011;30583;48.714;9.386;2023-10-19T12:53:11;24.98;;;17.30;;
44850;SDS011;30583;48.714;9.386;2023-10-19T12:55:36;23.35;;;16.20;;
44850;SDS011;30583;48.714;9.386;2023-10-19T12:58:03;18.88;;;14.60;;
44850;SDS011;30583;48.714;9.386;2023-10-19T13:00:34;15.70;;;12.48;;
44850;SDS011;30583;48.714;9.386;2023-10-19T13:03:08;10.60;;;8.98;;
44850;SDS011;30583;48.714;9.386;2023-10-19T13:05:38;9.13;;;6.28;;
44850;SDS011;30583;48.714;9.386;2023-10-19T13:08:05;12.52;;;7.70;;
44850;SDS011;30583;48.714;9.386;2023-10-19T13:10:32;13.77;;;10.63;;
44850;SDS011;30583;48.714;9.386;2023-10-19T13:13:06;15.63;;;11.85;;
44850;SDS011;30583;48.714;9.386;2023-10-19T13:15:34;17.10;;;12.60;;
44850;SDS011;30583;48.714;9.386;2023-10-19T13:18:00;17.15;;;12.60;;
44850;SDS011;30583;48.714;9.386;2023-10-19T13:20:27;14.10;;;10.57;;
44850;SDS011;30583;48.714;9.386;2023-10-19T13:22:58;15.38;;;10.73;;
44850;SDS011;30583;48.714;9.386;2023-10-19T13:25:24;14.68;;;10.15;;
44850;SDS011;30583;48.714;9.386;2023-10-19T13:28:09;14.45;;;9.20;;
44850;SDS011;30583;48.714;9.386;2023-10-19T13:30:41;13.90;;;9.98;;
44850;SDS011;30583;48.714;9.386;2023-10-19T13:33:20;19.58;;;11.07;;
44850;SDS011;30583;48.714;9.386;2023-10-19T13:35:47;12.30;;;7.68;;
44850;SDS011;30583;48.714;9.386;2023-10-19T13:38:13;11.43;;;4.50;;
44850;SDS011;30583;48.714;9.386;2023-10-19T13:40:41;27.05;;;8.68;;
44850;SDS011;30583;48.714;9.386;2023-10-19T13:43:07;13.30;;;5.72;;
44850;SDS011;30583;48.714;9.386;2023-10-19T13:45:38;14.32;;;6.50;;
44850;SDS011;30583;48.714;9.386;2023-10-19T13:48:06;20.25;;;8.50;;
44850;SDS011;30583;48.714;9.386;2023-10-19T13:50:33;18.27;;;8.60;;
44850;SDS011;30583;48.714;9.386;2023-10-19T13:53:00;16.30;;;6.05;;
44850;SDS011;30583;48.714;9.386;2023-10-19T13:55:27;15.63;;;5.65;;
44850;SDS011;30583;48.714;9.386;2023-10-19T13:57:53;10.95;;;5.70;;
44850;SDS011;30583;48.714;9.386;2023-10-19T14:00:21;12.18;;;6.20;;
44850;SDS011;30583;48.714;9.386;2023-10-19T14:02:55;12.57;;;6.85;;
44850;SDS011;30583;48.714;9.386;2023-10-19T14:05:23;10.25;;;7.50;;
44850;SDS011;30583;48.714;9.386;2023-10-19T14:07:50;12.35;;;7.32;;
44850;SDS011;30583;48.714;9.386;2023-10-19T14:10:17;9.27;;;6.43;;
44850;SDS011;30583;48.714;9.386;2023-10-19T14:12:45;9.85;;;6.55;;
44850;SDS011;30583;48.714;9.386;2023-10-19T14:15:16;11.38;;;6.75;;
44850;SDS011;30583;48.714;9.386;2023-10-19T14:17:43;16.75;;;9.77;;
44850;SDS011;30583;48.714;9.386;2023-10-19T14:20:11;14.52;;;10.18;;
44850;SDS011;30583;48.714;9.386;2023-10-19T14:22:42;12.80;;;8.65;;
44850;SDS011;30583;48.714;9.386;2023-10-19T14:25:09;16.25;;;9.90;;
44850;SDS011;30583;48.714;9.386;2023-10-19T14:27:42;12.32;;;8.50;;
44850;SDS011;30583;48.714;9.386;2023-10-19T14:30:10;13.60;;;9.35;;
44850;SDS011;30583;48.714;9.386;2023-10-19T14:32:40;14.68;;;9.73;;
44850;SDS011;30583;48.714;9.386;2023-10-19T14:35:08;15.80;;;10.38;;
44850;SDS011;30583;48.714;9.386;2023-10-19T14:37:36;14.68;;;10.07;;
44850;SDS011;30583;48.714;9.386;2023-10-19T14:40:04;16.38;;;10.43;;
44850;SDS011;30583;48.714;9.386;2023-10-19T14:42:37;16.00;;;10.13;;
44850;SDS011;30583;48.714;9.386;2023-10-19T14:45:05;15.43;;;10.43;;
44850;SDS011;30583;48.714;9.386;2023-10-19T14:47:34;12.98;;;9.07;;
44850;SDS011;30583;48.714;9.386;2023-10-19T14:50:01;15.20;;;9.45;;
44850;SDS011;30583;48.714;9.386;2023-10-19T14:52:27;16.52;;;10.43;;